Terminal Aerodrome Forecast
Issued by NWS Jacksonville, FL

Home | Current Version | Previous Version | Text Only | Print | Product List | Glossary On
Versions: 1 2 3 4 5 6 7 8 9 10 11 12 13 14 15 16 17 18 19 20 21 22 23 24 25
858
FTUS42 KJAX 292340
TAFJAX
TAF
KJAX 292340Z 3000/3024 VRB05KT P6SM FEW250
     FM300800 VRB03KT 2SM BR SCT002 BKN006
     FM301400 13010KT P6SM SCT025=

USA.gov is the U.S. government's official web portal to all federal, state and local government web resources and services.